Time;durP1;ratioP1;P1;durP2;ratioP2;P2;SDS_P1;SDS_P2;PMS_P1;PMS_P2;Temp;Humidity;BMP_temperature;BMP_pressure;BME280_temperature;BME280_humidity;BME280_pressure;Samples;Min_cycle;Max_cycle;Signal;HPM_P1;HPM_P2
2023/11/18 00:00:47;;;;;;;;;;;6.20;99.90;;;5.52;100.00;98686.28;5024797;28;1662;-71
2023/11/18 00:03:13;;;;;;;;;;;6.20;99.90;;;5.59;100.00;98682.84;5008328;28;1727;-71
2023/11/18 00:05:40;;;;;;;;;;;6.30;99.90;;;5.73;100.00;98690.50;5021036;28;1468;-70
2023/11/18 00:08:07;;;;;;;;;;;6.20;99.90;;;5.36;100.00;98676.09;5027594;28;1569;-71
2023/11/18 00:10:34;;;;;;;;;;;6.20;99.90;;;5.35;100.00;98669.22;5027429;28;1925;-72
2023/11/18 00:13:03;;;;;;;;;;;6.20;99.90;;;5.44;100.00;98670.91;5011419;28;1510;-73
2023/11/18 00:15:30;;;;;;;;;;;6.30;99.90;;;5.49;100.00;98676.88;5024251;28;1607;-72
2023/11/18 00:17:57;;;;;;;;;;;6.20;99.90;;;5.40;100.00;98669.19;5025451;28;1571;-70
2023/11/18 00:20:24;;;;;;;;;;;6.20;99.90;;;5.46;100.00;98674.31;5027844;28;1627;-70
2023/11/18 00:22:52;;;;;;;;;;;6.20;99.90;;;5.54;100.00;98671.69;5009160;28;1679;-70
2023/11/18 00:25:19;;;;;;;;;;;6.10;99.90;;;5.65;100.00;98667.34;5023843;28;1607;-73
2023/11/18 00:27:46;;;;;;;;;;;6.10;99.90;;;5.45;100.00;98658.03;5005138;28;1910;-73
2023/11/18 00:30:13;;;;;;;;;;;6.20;99.90;;;5.43;100.00;98664.91;5007993;28;1914;-70
2023/11/18 00:32:40;;;;;;;;;;;6.20;99.90;;;5.42;100.00;98659.75;5023675;28;1500;-71
2023/11/18 00:35:10;;;;;;;;;;;6.20;99.90;;;5.34;100.00;98649.50;5026066;28;1543;-70
2023/11/18 00:37:37;;;;;;;;;;;6.20;99.90;;;5.49;100.00;98656.28;5023771;28;1468;-70
2023/11/18 00:40:05;;;;;;;;;;;6.20;99.90;;;5.30;100.00;98647.78;5026527;28;1528;-71
2023/11/18 00:42:32;;;;;;;;;;;6.10;99.90;;;5.44;100.00;98656.28;5005077;28;1533;-70
2023/11/18 00:44:58;;;;;;;;;;;6.20;99.90;;;5.53;100.00;98657.13;4994202;28;1612;-70
2023/11/18 00:47:25;;;;;;;;;;;6.20;99.90;;;5.50;100.00;98665.72;5010866;28;1693;-70
2023/11/18 00:49:53;;;;;;;;;;;6.10;99.90;;;5.37;100.00;98664.91;5009814;28;1902;-70
2023/11/18 00:52:20;;;;;;;;;;;6.10;99.90;;;5.34;100.00;98666.66;5025215;28;1445;-70
2023/11/18 00:54:47;;;;;;;;;;;6.10;99.90;;;5.36;100.00;98665.78;5009429;28;1727;-73
2023/11/18 00:57:14;;;;;;;;;;;6.10;99.90;;;5.40;100.00;98664.88;5025167;28;1442;-71
2023/11/18 00:59:43;;;;;;;;;;;6.20;99.90;;;5.33;100.00;98673.50;5027220;28;1426;-72
2023/11/18 01:02:10;;;;;;;;;;;6.10;99.90;;;5.40;100.00;98671.75;5008775;28;1465;-72
2023/11/18 01:04:38;;;;;;;;;;;6.00;99.90;;;5.47;100.00;98675.16;5009141;28;1751;-70
2023/11/18 01:07:05;;;;;;;;;;;5.90;99.90;;;5.37;100.00;98664.06;5024910;28;1534;-75
2023/11/18 01:09:38;;;;;;;;;;;6.00;99.90;;;5.19;100.00;98667.56;5024650;28;1902;-70
2023/11/18 01:12:09;;;;;;;;;;;5.90;99.90;;;5.11;100.00;98664.16;5022604;28;1409;-74
2023/11/18 01:14:37;;;;;;;;;;;5.90;99.90;;;5.14;100.00;98666.72;5009818;28;1428;-71
2023/11/18 01:17:06;;;;;;;;;;;5.90;99.90;;;5.31;100.00;98658.94;5023774;28;1473;-73
2023/11/18 01:19:36;;;;;;;;;;;5.90;99.90;;;5.24;100.00;98652.94;5004218;28;1458;-71
2023/11/18 01:22:06;;;;;;;;;;;5.90;99.90;;;5.25;100.00;98649.53;5025129;28;1524;-70
2023/11/18 01:24:33;;;;;;;;;;;5.80;99.90;;;5.17;100.00;98652.09;5024862;28;1265;-70
2023/11/18 01:27:01;;;;;;;;;;;5.80;99.90;;;5.06;100.00;98648.72;5010591;28;1424;-72
2023/11/18 01:29:27;;;;;;;;;;;5.80;99.90;;;5.12;100.00;98643.56;5018743;28;1922;-73
2023/11/18 01:31:55;;;;;;;;;;;5.80;99.90;;;5.10;100.00;98642.72;5022606;28;1508;-71
2023/11/18 01:34:23;;;;;;;;;;;5.80;99.90;;;5.26;100.00;98648.66;5023239;28;1880;-71
2023/11/18 01:36:50;;;;;;;;;;;5.80;99.90;;;5.21;100.00;98643.53;5025523;28;1492;-72
2023/11/18 01:39:17;;;;;;;;;;;5.80;99.90;;;5.07;100.00;98647.03;5004657;28;1681;-72
2023/11/18 01:41:45;;;;;;;;;;;5.80;99.90;;;5.13;100.00;98652.13;5024010;28;1547;-71
2023/11/18 01:44:15;;;;;;;;;;;5.80;99.90;;;5.07;100.00;98654.75;5005150;28;2037;-70
2023/11/18 01:46:45;;;;;;;;;;;5.80;99.90;;;4.98;100.00;98659.03;5005749;28;1618;-70
2023/11/18 01:49:13;;;;;;;;;;;5.80;99.90;;;4.92;100.00;98648.75;5022384;28;1969;-73
2023/11/18 01:51:42;;;;;;;;;;;5.80;99.90;;;4.85;100.00;98648.78;5005303;28;1456;-72
2023/11/18 01:54:14;;;;;;;;;;;5.80;99.90;;;4.97;100.00;98656.47;4992952;28;1255;-70
2023/11/18 01:56:43;;;;;;;;;;;5.80;99.90;;;4.99;100.00;98657.31;5005409;28;1273;-70
2023/11/18 01:59:15;;;;;;;;;;;5.70;99.90;;;4.98;100.00;98658.19;5005237;28;1414;-69
2023/11/18 02:01:43;;;;;;;;;;;5.70;99.90;;;4.92;100.00;98668.50;5005667;28;1414;-71
2023/11/18 02:04:10;;;;;;;;;;;5.60;99.90;;;4.84;100.00;98662.53;5022459;28;1433;-75
2023/11/18 02:06:37;;;;;;;;;;;5.60;99.90;;;4.81;100.00;98661.69;5025852;28;1387;-72
2023/11/18 02:09:04;;;;;;;;;;;5.70;99.90;;;4.77;100.00;98653.97;5006648;28;1898;-72
2023/11/18 02:12:11;;;;;;;;;;;5.70;99.90;;;4.93;100.00;98658.22;4990802;28;1452;-71
2023/11/18 02:14:40;;;;;;;;;;;5.60;99.90;;;4.89;100.00;98648.78;5005815;28;1519;-71
2023/11/18 02:17:10;;;;;;;;;;;5.70;99.90;;;4.90;100.00;98647.06;5022033;28;1378;-70
2023/11/18 02:19:39;;;;;;;;;;;5.70;99.90;;;4.97;100.00;98652.19;5022535;28;1297;-70
2023/11/18 02:22:07;;;;;;;;;;;5.70;99.90;;;5.04;100.00;98640.19;5007500;28;1474;-71
2023/11/18 02:24:37;;;;;;;;;;;5.80;99.90;;;5.16;100.00;98639.28;5023827;28;1261;-71
2023/11/18 02:27:07;;;;;;;;;;;5.90;99.90;;;5.08;100.00;98635.84;5021450;28;1440;-72
2023/11/18 02:29:37;;;;;;;;;;;5.90;99.90;;;5.09;100.00;98648.72;4992983;28;2008;-71
2023/11/18 02:32:10;;;;;;;;;;;6.00;99.90;;;5.14;100.00;98649.56;5005446;28;1429;-73
2023/11/18 02:34:42;;;;;;;;;;;6.00;99.90;;;5.16;100.00;98644.41;5004096;28;1453;-70
2023/11/18 02:37:10;;;;;;;;;;;6.00;99.90;;;5.11;100.00;98638.41;5005038;28;1402;-70
2023/11/18 02:39:43;;;;;;;;;;;6.00;99.90;;;5.00;100.00;98641.88;5000358;28;1309;-71
2023/11/18 02:42:12;;;;;;;;;;;5.90;99.90;;;5.00;100.00;98641.88;5021697;28;1648;-71
2023/11/18 02:44:39;;;;;;;;;;;5.80;99.90;;;5.11;100.00;98639.28;5017349;28;1446;-71
2023/11/18 02:47:06;;;;;;;;;;;5.90;99.90;;;4.94;100.00;98641.06;5018852;28;1803;-75
2023/11/18 02:49:36;;;;;;;;;;;5.90;99.90;;;4.96;100.00;98644.47;5008226;28;1985;-70
2023/11/18 02:52:03;;;;;;;;;;;5.80;99.90;;;4.94;100.00;98647.03;5020247;28;1600;-71
2023/11/18 02:54:30;;;;;;;;;;;5.80;99.90;;;4.96;100.00;98644.47;5019507;28;1315;-72
2023/11/18 02:56:58;;;;;;;;;;;5.80;99.90;;;4.96;100.00;98635.03;5005786;28;1290;-72
2023/11/18 02:59:26;;;;;;;;;;;5.80;99.90;;;4.96;100.00;98645.31;5005870;28;1496;-70
2023/11/18 03:01:55;;;;;;;;;;;5.80;99.90;;;5.04;100.00;98642.75;5021891;28;1425;-70
2023/11/18 03:04:23;;;;;;;;;;;5.80;99.90;;;4.84;100.00;98639.38;5005343;28;1462;-70
2023/11/18 03:06:50;;;;;;;;;;;5.80;99.90;;;4.92;100.00;98650.50;5024323;28;1341;-70
2023/11/18 03:09:18;;;;;;;;;;;5.80;99.90;;;4.88;100.00;98646.19;5008068;28;1994;-70
2023/11/18 03:11:45;;;;;;;;;;;5.80;99.90;;;4.89;100.00;98659.06;5022349;28;1362;-71
2023/11/18 03:14:12;;;;;;;;;;;5.80;99.90;;;4.82;100.00;98658.22;5005928;28;1468;-71
2023/11/18 03:16:39;;;;;;;;;;;5.80;99.90;;;4.93;100.00;98659.94;5005387;28;1385;-70
2023/11/18 03:19:08;;;;;;;;;;;5.80;99.90;;;4.96;100.00;98653.03;5021230;28;1433;-71
2023/11/18 03:21:38;;;;;;;;;;;5.80;99.90;;;4.96;100.00;98650.47;5023051;28;1431;-70
2023/11/18 03:24:06;;;;;;;;;;;5.70;99.90;;;4.92;100.00;98655.63;5023248;28;1298;-71
2023/11/18 03:26:33;;;;;;;;;;;5.60;99.90;;;4.97;100.00;98646.19;5004332;28;1520;-70
2023/11/18 03:28:59;;;;;;;;;;;5.70;99.90;;;4.84;100.00;98650.53;5021508;28;1241;-70
2023/11/18 03:31:28;;;;;;;;;;;5.70;99.90;;;4.97;100.00;98641.03;5022455;28;2013;-71
2023/11/18 03:33:57;;;;;;;;;;;5.60;99.90;;;4.84;100.00;98642.81;5004327;28;1399;-70
2023/11/18 03:36:23;;;;;;;;;;;5.60;99.90;;;4.86;100.00;98635.94;5021659;28;1378;-72
2023/11/18 03:38:50;;;;;;;;;;;5.70;99.90;;;4.85;100.00;98636.78;5005672;28;1253;-72
2023/11/18 03:41:17;;;;;;;;;;;5.70;99.90;;;4.75;100.00;98640.25;5028327;28;1394;-71
2023/11/18 03:43:44;;;;;;;;;;;5.60;99.90;;;4.76;100.00;98644.53;5028684;28;1222;-72
2023/11/18 03:46:11;;;;;;;;;;;5.60;99.90;;;4.73;100.00;98653.09;5024492;28;1354;-74
2023/11/18 03:48:38;;;;;;;;;;;5.60;99.90;;;4.80;100.00;98644.50;5011791;28;1630;-71
2023/11/18 03:51:05;;;;;;;;;;;5.60;99.90;;;4.81;100.00;98645.34;5025003;28;1991;-71
2023/11/18 03:53:33;;;;;;;;;;;5.60;99.90;;;4.75;100.00;98655.69;5002867;28;1401;-71
2023/11/18 03:56:02;;;;;;;;;;;5.60;99.90;;;4.73;100.00;98659.97;5025176;28;1253;-72
2023/11/18 03:58:29;;;;;;;;;;;5.60;99.90;;;4.74;100.00;98656.53;5011345;28;1444;-70
2023/11/18 04:00:57;;;;;;;;;;;5.60;99.90;;;4.70;100.00;98662.53;5023225;28;1435;-70
2023/11/18 04:03:24;;;;;;;;;;;5.60;99.90;;;4.75;100.00;98645.41;5022217;28;1373;-70
2023/11/18 04:05:52;;;;;;;;;;;5.60;99.90;;;4.73;100.00;98653.09;5025290;28;1293;-71
2023/11/18 04:08:19;;;;;;;;;;;5.60;99.90;;;4.63;100.00;98643.72;5025574;28;1621;-72
2023/11/18 04:10:46;;;;;;;;;;;5.50;99.90;;;4.66;100.00;98640.28;5023222;28;1902;-70
2023/11/18 04:13:13;;;;;;;;;;;5.50;99.90;;;4.57;100.00;98631.69;5023154;28;1378;-71
2023/11/18 04:15:40;;;;;;;;;;;5.50;99.90;;;4.45;100.00;98629.16;5022336;28;1415;-70
2023/11/18 04:18:06;;;;;;;;;;;5.40;99.90;;;4.53;100.00;98637.69;5025225;28;1194;-71
2023/11/18 04:20:33;;;;;;;;;;;5.50;99.90;;;4.56;100.00;98640.28;5025526;28;1327;-71
2023/11/18 04:23:00;;;;;;;;;;;5.40;99.90;;;4.59;100.00;98640.28;5025384;28;1450;-72
2023/11/18 04:25:27;;;;;;;;;;;5.30;99.90;;;4.46;100.00;98633.44;5025859;28;1242;-71
2023/11/18 04:27:57;;;;;;;;;;;5.30;99.90;;;4.45;100.00;98631.72;5022589;28;1735;-70
2023/11/18 04:30:26;;;;;;;;;;;5.30;99.90;;;4.35;100.00;98627.44;5025459;28;1997;-72
2023/11/18 04:32:53;;;;;;;;;;;5.30;99.90;;;4.40;100.00;98631.75;5024246;28;1464;-72
2023/11/18 04:35:37;;;;;;;;;;;5.30;99.90;;;4.35;100.00;98622.31;5011374;28;1286;-73
2023/11/18 04:38:04;;;;;;;;;;;5.30;99.90;;;4.50;100.00;98611.16;5024087;28;1443;-70
2023/11/18 04:40:31;;;;;;;;;;;5.30;99.90;;;4.49;100.00;98610.28;5024839;28;1339;-71
2023/11/18 04:42:58;;;;;;;;;;;5.30;99.90;;;4.50;100.00;98608.59;4995170;28;1589;-72
2023/11/18 04:45:24;;;;;;;;;;;5.40;99.90;;;4.48;100.00;98603.44;5026141;28;1572;-71
2023/11/18 04:47:51;;;;;;;;;;;5.40;99.90;;;4.19;100.00;98609.44;5009049;28;1545;-71
2023/11/18 04:50:18;;;;;;;;;;;5.30;99.90;;;4.32;100.00;98609.47;5005627;28;2008;-71
2023/11/18 04:52:45;;;;;;;;;;;5.20;99.90;;;4.36;100.00;98611.19;5008346;28;1400;-70
2023/11/18 04:55:14;;;;;;;;;;;5.20;99.90;;;4.42;100.00;98607.72;5025789;28;1250;-72
2023/11/18 04:57:40;;;;;;;;;;;5.30;99.90;;;4.51;100.00;98613.69;5024618;28;1646;-72
2023/11/18 05:00:11;;;;;;;;;;;5.20;99.90;;;4.38;100.00;98606.91;5024087;28;1389;-72
2023/11/18 05:02:38;;;;;;;;;;;5.20;99.90;;;4.51;100.00;98605.16;5003626;28;1436;-71
2023/11/18 05:05:06;;;;;;;;;;;5.20;99.90;;;4.64;100.00;98618.84;5011109;28;1407;-73
2023/11/18 05:07:34;;;;;;;;;;;5.20;99.90;;;4.58;100.00;98619.69;5007278;28;1393;-71
2023/11/18 05:10:03;;;;;;;;;;;5.20;99.90;;;4.66;100.00;98612.84;5008043;28;2133;-72
2023/11/18 05:12:30;;;;;;;;;;;5.30;99.90;;;4.57;100.00;98612.84;5023024;28;1489;-71
2023/11/18 05:14:57;;;;;;;;;;;5.30;99.90;;;4.63;100.00;98610.28;5023359;28;1459;-72
2023/11/18 05:17:25;;;;;;;;;;;5.40;99.90;;;4.60;100.00;98605.13;5022023;28;1269;-72
2023/11/18 05:19:53;;;;;;;;;;;5.40;99.90;;;4.74;100.00;98605.09;5021638;28;1353;-71
2023/11/18 05:22:23;;;;;;;;;;;5.30;99.90;;;4.61;100.00;98605.13;5007970;28;1499;-71
2023/11/18 05:24:50;;;;;;;;;;;5.30;99.90;;;4.77;100.00;98593.09;5024578;28;1492;-72
2023/11/18 05:27:17;;;;;;;;;;;5.30;99.90;;;4.81;100.00;98589.66;5005802;28;1453;-70
2023/11/18 05:29:54;;;;;;;;;;;5.50;99.90;;;4.79;100.00;98596.50;5022300;28;2003;-70
2023/11/18 05:32:22;;;;;;;;;;;5.50;99.90;;;4.75;100.00;98578.53;5022672;28;1415;-71
2023/11/18 05:34:53;;;;;;;;;;;5.50;99.90;;;4.64;100.00;98570.84;5023555;28;1476;-75
2023/11/18 05:37:24;;;;;;;;;;;5.60;99.90;;;4.72;100.00;98571.69;5008666;28;1536;-71
2023/11/18 05:39:59;;;;;;;;;;;5.60;99.90;;;4.86;100.00;98571.63;5022012;28;1415;-71
2023/11/18 05:42:26;;;;;;;;;;;5.60;99.90;;;4.90;100.00;98573.31;5017892;28;1675;-71
2023/11/18 05:44:59;;;;;;;;;;;5.70;99.90;;;4.83;100.00;98566.47;5024898;28;1405;-72
2023/11/18 05:47:26;;;;;;;;;;;5.70;99.90;;;4.96;100.00;98575.00;5024549;28;1262;-72
2023/11/18 05:49:53;;;;;;;;;;;5.80;99.90;;;5.02;100.00;98581.00;5022565;28;1906;-71
2023/11/18 05:52:20;;;;;;;;;;;5.80;99.90;;;5.03;100.00;98577.53;5007460;28;1450;-72
2023/11/18 05:54:48;;;;;;;;;;;5.90;99.90;;;5.00;100.00;98580.13;5022692;28;1662;-71
2023/11/18 05:57:16;;;;;;;;;;;5.90;99.90;;;5.08;100.00;98576.66;4991860;28;1491;-71
2023/11/18 05:59:43;;;;;;;;;;;5.90;99.90;;;5.15;100.00;98566.31;5021783;28;1539;-71
2023/11/18 06:02:17;;;;;;;;;;;5.90;99.90;;;5.12;100.00;98570.66;4993078;28;1426;-74
2023/11/18 06:04:45;;;;;;;;;;;6.00;99.90;;;5.11;100.00;98563.78;5025125;28;1425;-72
2023/11/18 06:07:18;;;;;;;;;;;6.00;99.90;;;5.23;100.00;98569.72;5025561;28;1379;-71
2023/11/18 06:09:46;;;;;;;;;;;6.00;99.90;;;5.15;100.00;98568.91;5004840;28;1396;-72
2023/11/18 06:12:13;;;;;;;;;;;6.00;99.90;;;5.01;100.00;98566.41;5021601;28;1973;-71
2023/11/18 06:14:41;;;;;;;;;;;6.00;99.90;;;5.09;100.00;98556.09;5023680;28;1455;-71
2023/11/18 06:17:08;;;;;;;;;;;6.00;99.90;;;5.18;100.00;98562.91;5025086;28;1229;-71
2023/11/18 06:19:35;;;;;;;;;;;6.00;99.90;;;5.09;100.00;98558.66;5009092;28;1364;-71
2023/11/18 06:22:02;;;;;;;;;;;6.00;99.90;;;4.98;100.00;98556.13;5007907;28;1488;-71
2023/11/18 06:24:29;;;;;;;;;;;6.00;99.90;;;5.06;100.00;98550.09;5021674;28;1190;-71
2023/11/18 06:26:56;;;;;;;;;;;6.00;99.90;;;5.09;100.00;98550.94;5021870;28;1580;-71
2023/11/18 06:29:23;;;;;;;;;;;6.00;99.90;;;5.09;100.00;98545.78;5022612;28;1394;-71
2023/11/18 06:31:50;;;;;;;;;;;5.90;99.90;;;5.08;100.00;98546.63;5023878;28;1985;-72
2023/11/18 06:34:18;;;;;;;;;;;6.00;99.90;;;5.02;100.00;98562.97;5019746;28;1526;-71
2023/11/18 06:36:45;;;;;;;;;;;5.90;99.90;;;5.07;100.00;98562.94;5008926;28;1392;-71
2023/11/18 06:39:13;;;;;;;;;;;6.00;99.90;;;4.99;100.00;98559.56;5022159;28;1355;-71
2023/11/18 06:41:48;;;;;;;;;;;5.90;99.90;;;5.09;100.00;98557.81;5024503;28;1463;-72
2023/11/18 06:44:18;;;;;;;;;;;6.00;99.90;;;4.97;100.00;98554.44;5019523;28;1704;-71
2023/11/18 06:46:44;;;;;;;;;;;6.00;99.90;;;5.11;100.00;98556.94;5019696;28;1400;-71
2023/11/18 06:49:15;;;;;;;;;;;6.00;99.90;;;5.22;100.00;98560.31;5021308;28;1386;-71
2023/11/18 06:51:42;;;;;;;;;;;6.00;99.90;;;5.16;100.00;98565.47;5023717;28;1918;-72
2023/11/18 06:54:09;;;;;;;;;;;6.00;99.90;;;5.15;100.00;98566.31;5024172;28;1346;-71
2023/11/18 06:56:44;;;;;;;;;;;6.00;99.90;;;5.19;100.00;98562.03;5019426;28;1317;-72
2023/11/18 06:59:13;;;;;;;;;;;6.00;99.90;;;5.23;100.00;98556.00;5018924;28;1512;-72
2023/11/18 07:01:43;;;;;;;;;;;6.00;99.90;;;5.34;100.00;98566.25;5005591;28;1387;-72
2023/11/18 07:04:11;;;;;;;;;;;6.10;99.90;;;5.19;100.00;98565.47;5021844;28;1586;-71
2023/11/18 07:06:38;;;;;;;;;;;6.10;99.90;;;5.24;100.00;98573.16;5022418;28;1269;-71
2023/11/18 07:09:13;;;;;;;;;;;6.00;99.90;;;5.23;100.00;98572.31;5020699;28;1330;-71
2023/11/18 07:11:43;;;;;;;;;;;6.10;99.90;;;5.20;100.00;98569.75;5005275;28;1922;-72
2023/11/18 07:14:10;;;;;;;;;;;6.10;99.90;;;5.37;100.00;98566.22;5008288;28;1402;-71
2023/11/18 07:16:41;;;;;;;;;;;6.10;99.90;;;5.40;100.00;98567.03;5025241;28;1450;-71
2023/11/18 07:19:09;;;;;;;;;;;6.10;99.90;;;5.47;100.00;98554.16;5026338;28;1768;-71
2023/11/18 07:21:37;;;;;;;;;;;6.20;99.90;;;5.47;100.00;98546.41;5009773;28;1575;-71
2023/11/18 07:24:04;;;;;;;;;;;6.20;99.90;;;5.47;100.00;98549.84;5022886;28;1455;-71
2023/11/18 07:26:31;;;;;;;;;;;6.20;99.90;;;5.43;100.00;98555.91;5024258;28;1511;-71
2023/11/18 07:28:58;;;;;;;;;;;6.20;99.90;;;5.57;100.00;98558.38;5010144;28;1614;-71
2023/11/18 07:31:28;;;;;;;;;;;6.20;99.90;;;5.52;100.00;98553.25;5024965;28;1906;-71
2023/11/18 07:33:56;;;;;;;;;;;6.20;99.90;;;5.53;100.00;98565.25;5009941;28;1431;-71
2023/11/18 07:36:23;;;;;;;;;;;6.20;99.90;;;5.52;100.00;98579.03;5022317;28;1457;-73
2023/11/18 07:38:52;;;;;;;;;;;6.20;99.90;;;5.60;100.00;98582.38;5024819;28;1406;-73
2023/11/18 07:41:27;;;;;;;;;;;6.30;99.90;;;5.64;100.00;98586.66;5011442;28;1406;-72
2023/11/18 07:43:58;;;;;;;;;;;6.40;99.90;;;5.77;100.00;98587.44;5027516;28;1081;-71
2023/11/18 07:46:25;;;;;;;;;;;6.40;99.90;;;5.78;100.00;98571.09;5011299;28;1489;-71
2023/11/18 07:48:52;;;;;;;;;;;6.40;99.90;;;5.88;100.00;98561.56;5024093;28;1332;-72
2023/11/18 07:51:23;;;;;;;;;;;6.50;99.90;;;5.90;100.00;98571.88;5008945;28;1973;-72
2023/11/18 07:53:50;;;;;;;;;;;6.50;99.90;;;5.78;100.00;98581.41;5007827;28;1372;-72
2023/11/18 07:56:17;;;;;;;;;;;6.50;99.90;;;5.91;100.00;98571.88;4992478;28;1424;-72
2023/11/18 07:58:47;;;;;;;;;;;6.60;99.90;;;5.86;100.00;98582.22;5008447;28;1332;-73
2023/11/18 08:01:17;;;;;;;;;;;6.60;99.90;;;5.80;100.00;98566.78;5009456;28;1395;-71
2023/11/18 08:03:45;;;;;;;;;;;6.50;99.90;;;6.02;100.00;98567.50;5005391;28;1416;-72
2023/11/18 08:06:12;;;;;;;;;;;6.50;99.90;;;6.06;100.00;98563.16;5023440;28;1422;-73
2023/11/18 08:08:40;;;;;;;;;;;6.60;99.90;;;6.03;100.00;98566.63;5012284;28;1269;-71
2023/11/18 08:11:10;;;;;;;;;;;6.70;99.90;;;6.09;100.00;98558.00;5006912;28;1969;-71
2023/11/18 08:13:37;;;;;;;;;;;6.80;99.90;;;6.10;100.00;98556.28;5021777;28;1755;-71
2023/11/18 08:16:08;;;;;;;;;;;6.80;99.90;;;6.16;100.00;98554.50;5020976;28;1742;-71
2023/11/18 08:18:36;;;;;;;;;;;6.80;99.90;;;6.23;100.00;98557.88;5019900;28;1382;-72
2023/11/18 08:21:06;;;;;;;;;;;6.80;99.90;;;6.12;100.00;98555.41;5020358;28;1556;-71
2023/11/18 08:23:34;;;;;;;;;;;6.80;99.90;;;6.30;100.00;98556.94;5023858;28;1518;-71
2023/11/18 08:26:05;;;;;;;;;;;6.80;99.90;;;6.49;100.00;98547.28;5007508;28;1691;-75
2023/11/18 08:28:33;;;;;;;;;;;6.90;99.90;;;6.52;100.00;98547.25;5004271;28;1687;-71
2023/11/18 08:31:00;;;;;;;;;;;6.90;99.90;;;6.42;100.00;98543.06;5022077;28;1906;-71
2023/11/18 08:33:28;;;;;;;;;;;7.00;99.90;;;6.83;100.00;98540.03;5022021;28;1401;-72
2023/11/18 08:35:56;;;;;;;;;;;7.10;99.90;;;6.72;100.00;98538.44;5021895;28;1379;-72
2023/11/18 08:38:24;;;;;;;;;;;7.10;99.90;;;6.70;100.00;98534.16;5020971;28;1419;-72
2023/11/18 08:40:51;;;;;;;;;;;7.20;99.90;;;6.91;100.00;98527.88;5004112;28;1522;-74
2023/11/18 08:43:20;;;;;;;;;;;7.30;99.90;;;7.02;100.00;98537.22;5003830;28;1519;-72
2023/11/18 08:45:47;;;;;;;;;;;7.40;99.90;;;6.86;100.00;98542.56;5025940;28;1422;-72
2023/11/18 08:48:16;;;;;;;;;;;7.50;99.90;;;6.87;100.00;98536.53;5025623;28;1356;-71
2023/11/18 08:50:43;;;;;;;;;;;7.50;99.90;;;6.91;100.00;98534.75;5003750;28;1906;-72
2023/11/18 08:53:11;;;;;;;;;;;7.50;99.90;;;6.98;100.00;98531.25;5011156;28;1419;-71
2023/11/18 08:55:39;;;;;;;;;;;7.60;99.90;;;6.70;100.00;98529.00;5026303;28;1221;-71
2023/11/18 08:58:18;;;;;;;;;;;7.50;99.90;;;6.78;100.00;98528.91;5008942;28;1312;-71
2023/11/18 09:03:34;;;;;;;;;;;7.40;99.90;;;7.17;100.00;98543.91;5009372;28;1163;-70
2023/11/18 09:06:06;;;;;;;;;;;7.50;99.90;;;6.91;100.00;98548.53;5007251;28;1214;-71
2023/11/18 09:08:42;;;;;;;;;;;7.50;99.90;;;6.85;100.00;98543.44;5010147;28;1456;-70
2023/11/18 09:11:17;;;;;;;;;;;7.50;99.90;;;7.07;100.00;98550.91;4993921;28;1906;-74
2023/11/18 09:13:44;;;;;;;;;;;7.30;99.90;;;7.06;100.00;98556.94;5005254;28;1269;-71
2023/11/18 09:16:12;;;;;;;;;;;7.40;99.90;;;6.99;100.00;98561.34;5006986;28;1434;-71
2023/11/18 09:18:41;;;;;;;;;;;7.30;99.90;;;7.11;100.00;98556.00;5006327;28;1234;-71
2023/11/18 09:21:14;;;;;;;;;;;7.50;99.90;;;6.82;100.00;98564.13;5003572;28;1481;-73
2023/11/18 09:23:44;;;;;;;;;;;7.50;99.90;;;6.83;100.00;98554.66;5023184;28;1254;-71
2023/11/18 09:26:14;;;;;;;;;;;7.30;99.90;;;6.86;100.00;98547.72;5022943;28;1692;-71
2023/11/18 09:28:42;;;;;;;;;;;7.30;99.90;;;6.89;100.00;98552.00;5021346;28;1467;-71
2023/11/18 09:31:11;;;;;;;;;;;7.50;99.90;;;6.93;100.00;98568.28;5019513;28;1906;-71
2023/11/18 09:33:44;;;;;;;;;;;7.40;99.90;;;6.97;100.00;98568.25;5031051;28;1467;-71
2023/11/18 09:36:12;;;;;;;;;;;7.50;99.90;;;7.13;100.00;98574.06;5007561;28;1369;-72
2023/11/18 09:38:40;;;;;;;;;;;7.60;99.90;;;7.15;100.00;98584.38;5022699;28;1501;-70
2023/11/18 09:41:11;;;;;;;;;;;7.50;99.90;;;7.09;100.00;98582.72;5023595;28;1482;-70
2023/11/18 09:43:43;;;;;;;;;;;7.60;99.90;;;6.98;100.00;98579.41;5008900;28;1454;-71
2023/11/18 09:46:14;;;;;;;;;;;7.70;99.90;;;6.94;100.00;98578.63;5008854;28;1402;-70
2023/11/18 09:48:47;;;;;;;;;;;7.60;99.90;;;6.98;100.00;98577.72;5026031;28;1085;-71
2023/11/18 09:51:22;;;;;;;;;;;7.60;99.90;;;7.00;100.00;98580.25;5007987;28;1902;-72
2023/11/18 09:53:54;;;;;;;;;;;7.60;99.90;;;6.92;100.00;98570.03;5024150;28;1897;-71
2023/11/18 09:56:38;;;;;;;;;;;7.60;99.90;;;6.92;100.00;98572.63;5006232;28;1488;-72
2023/11/18 09:59:35;;;;;;;;;;;7.60;99.90;;;6.94;100.00;98562.28;5020507;28;1532;-71
2023/11/18 10:02:06;;;;;;;;;;;7.60;99.90;;;6.72;100.00;98559.09;5001952;28;1683;-70
2023/11/18 10:04:57;;;;;;;;;;;7.50;99.90;;;6.75;100.00;98574.53;4994585;28;1449;-72
2023/11/18 10:07:32;;;;;;;;;;;7.50;99.90;;;6.82;100.00;98576.16;5008898;28;1230;-71
2023/11/18 10:09:59;;;;;;;;;;;7.30;99.90;;;6.95;100.00;98576.88;5021666;28;1387;-72
2023/11/18 10:12:26;;;;;;;;;;;7.30;99.90;;;6.95;100.00;98571.72;5024236;28;1922;-71
2023/11/18 10:14:54;;;;;;;;;;;7.30;99.90;;;6.84;100.00;98571.84;5006516;28;1421;-72
2023/11/18 10:17:24;;;;;;;;;;;7.40;99.90;;;6.88;100.00;98574.38;5020712;28;1464;-71
2023/11/18 10:19:56;;;;;;;;;;;7.40;99.90;;;6.90;100.00;98569.19;5020532;28;1399;-70
2023/11/18 10:22:26;;;;;;;;;;;7.40;99.90;;;6.84;100.00;98582.16;5005491;28;1700;-70
2023/11/18 10:24:54;;;;;;;;;;;7.50;99.90;;;6.81;100.00;98580.47;5023422;28;1470;-70
2023/11/18 10:27:25;;;;;;;;;;;7.50;99.90;;;6.99;100.00;98575.97;5018447;28;1615;-70
2023/11/18 10:29:55;;;;;;;;;;;7.60;99.90;;;6.97;100.00;98572.56;5019495;28;1750;-70
2023/11/18 10:32:27;;;;;;;;;;;7.50;99.90;;;6.72;100.00;98561.66;5021073;28;1903;-70
2023/11/18 10:34:57;;;;;;;;;;;7.40;99.90;;;6.64;100.00;98549.72;5004898;28;1458;-70
2023/11/18 10:37:30;;;;;;;;;;;7.40;99.90;;;6.63;100.00;98567.78;5018995;28;1475;-71
2023/11/18 10:40:04;;;;;;;;;;;7.30;99.90;;;6.73;100.00;98560.78;5006407;28;1400;-70
2023/11/18 10:42:32;;;;;;;;;;;7.20;99.90;;;6.74;100.00;98553.03;5018784;28;1418;-70
2023/11/18 10:45:03;;;;;;;;;;;7.30;99.90;;;6.76;100.00;98540.97;5020508;28;1428;-70
2023/11/18 10:47:38;;;;;;;;;;;7.40;99.90;;;6.80;100.00;98546.97;5008664;28;1453;-70
2023/11/18 10:50:09;;;;;;;;;;;7.40;99.90;;;6.79;100.00;98538.34;5022290;28;1438;-70
2023/11/18 10:52:40;;;;;;;;;;;7.30;99.90;;;6.86;100.00;98537.38;5004467;28;1907;-70
2023/11/18 10:55:11;;;;;;;;;;;7.30;99.90;;;6.72;100.00;98523.81;5006317;28;1396;-70
2023/11/18 10:57:41;;;;;;;;;;;7.40;99.90;;;6.93;100.00;98514.94;5002841;28;1151;-70
2023/11/18 11:00:13;;;;;;;;;;;7.50;99.90;;;6.72;100.00;98508.34;5004487;28;1380;-70
2023/11/18 11:02:41;;;;;;;;;;;7.60;99.90;;;6.92;100.00;98513.25;5004365;28;1457;-70
2023/11/18 11:05:15;;;;;;;;;;;7.60;99.90;;;6.89;100.00;98516.72;5004809;28;1596;-70
2023/11/18 11:07:48;;;;;;;;;;;7.60;99.90;;;6.97;100.00;98508.88;5020692;28;1414;-70
2023/11/18 11:10:16;;;;;;;;;;;7.50;99.90;;;7.05;100.00;98494.16;5025338;28;1073;-70
2023/11/18 11:12:54;;;;;;;;;;;7.60;99.90;;;7.15;100.00;98483.69;5005377;28;1927;-70
2023/11/18 11:15:29;;;;;;;;;;;7.60;99.90;;;7.08;100.00;98477.75;5003079;28;1593;-70
2023/11/18 11:18:09;;;;;;;;;;;7.70;99.90;;;6.80;100.00;98485.03;5023848;28;1802;-70
2023/11/18 11:20:42;;;;;;;;;;;7.60;99.90;;;6.80;100.00;98485.88;5020852;28;1418;-71
2023/11/18 11:23:22;;;;;;;;;;;7.60;99.90;;;6.84;100.00;98492.72;5006356;28;1417;-71
2023/11/18 11:26:01;;;;;;;;;;;7.50;99.90;;;6.82;100.00;98480.69;5008387;28;1318;-71
2023/11/18 11:28:37;;;;;;;;;;;7.50;99.90;;;6.82;100.00;98488.41;5000992;28;1394;-71
2023/11/18 11:31:22;;;;;;;;;;;7.50;99.90;;;6.75;100.00;98479.06;5018705;28;1481;-71
2023/11/18 11:33:55;;;;;;;;;;;7.40;99.90;;;6.77;100.00;98495.38;5022519;28;1633;-71
2023/11/18 11:36:31;;;;;;;;;;;7.40;99.90;;;6.79;100.00;98489.31;5004715;28;1416;-72
2023/11/18 11:38:59;;;;;;;;;;;7.30;99.90;;;6.73;100.00;98497.16;5005751;28;1630;-71
2023/11/18 11:41:27;;;;;;;;;;;7.30;99.90;;;6.52;100.00;98490.50;5004114;28;1415;-71
2023/11/18 11:43:55;;;;;;;;;;;7.20;99.90;;;6.62;100.00;98486.13;5001399;28;1079;-71
2023/11/18 11:46:23;;;;;;;;;;;7.30;99.90;;;6.74;100.00;98492.84;5002111;28;1393;-72